createdAt,value
2022-07-29T00:01:19.276Z,2.08
2022-07-29T00:03:47.314Z,1.85
2022-07-29T00:06:16.470Z,1.92
2022-07-29T00:08:43.825Z,2.22
2022-07-29T00:11:11.109Z,1.95
2022-07-29T00:13:38.399Z,2.13
2022-07-29T00:16:06.078Z,2.15
2022-07-29T00:18:33.894Z,2.17
2022-07-29T00:21:01.237Z,1.60
2022-07-29T00:23:29.239Z,2.25
2022-07-29T00:25:57.076Z,3.03
2022-07-29T00:28:24.249Z,2.25
2022-07-29T00:30:51.589Z,2.60
2022-07-29T00:33:18.878Z,2.33
2022-07-29T00:35:46.051Z,2.13
2022-07-29T00:38:19.240Z,3.50
2022-07-29T00:40:47.893Z,1.90
2022-07-29T00:43:16.216Z,2.45
2022-07-29T00:45:44.124Z,2.58
2022-07-29T00:48:11.519Z,2.22
2022-07-29T00:50:39.383Z,2.40
2022-07-29T00:53:12.917Z,2.08
2022-07-29T00:55:40.182Z,2.20
2022-07-29T00:58:08.260Z,2.55
2022-07-29T01:00:35.791Z,1.77
2022-07-29T01:03:02.996Z,2.92
2022-07-29T01:05:48.458Z,2.50
2022-07-29T01:08:21.203Z,2.08
2022-07-29T01:10:50.083Z,2.03
2022-07-29T01:13:18.467Z,2.30
2022-07-29T01:15:56.594Z,2.40
2022-07-29T01:18:38.827Z,1.85
2022-07-29T01:21:11.989Z,2.58
2022-07-29T01:24:32.423Z,2.05
2022-07-29T01:27:33.534Z,2.35
2022-07-29T01:30:05.149Z,2.35
2022-07-29T01:32:40.274Z,2.50
2022-07-29T01:35:35.086Z,2.08
2022-07-29T01:38:23.163Z,1.80
2022-07-29T01:41:11.541Z,2.45
2022-07-29T01:44:00.309Z,2.80
2022-07-29T01:46:40.656Z,1.95
2022-07-29T01:49:21.415Z,2.17
2022-07-29T01:52:06.506Z,3.17
2022-07-29T01:54:46.853Z,2.40
2022-07-29T01:57:20.835Z,2.40
2022-07-29T01:59:51.986Z,2.42
2022-07-29T02:02:21.792Z,2.47
2022-07-29T02:04:51.346Z,2.92
2022-07-29T02:07:23.129Z,2.75
2022-07-29T02:09:53.882Z,2.47
2022-07-29T02:12:25.107Z,3.35
2022-07-29T02:14:57.262Z,2.67
2022-07-29T02:17:40.860Z,3.20
2022-07-29T02:20:10.746Z,3.15
2022-07-29T02:22:42.029Z,3.20
2022-07-29T02:25:13.750Z,2.67
2022-07-29T02:27:44.205Z,3.63
2022-07-29T02:30:13.667Z,3.28
2022-07-29T02:32:43.205Z,3.20
2022-07-29T02:35:14.517Z,3.03
2022-07-29T02:37:45.542Z,3.08
2022-07-29T02:40:16.237Z,3.22
2022-07-29T02:42:47.437Z,3.83
2022-07-29T02:45:14.678Z,3.50
2022-07-29T02:47:50.635Z,3.53
2022-07-29T02:50:35.741Z,4.00
2022-07-29T02:53:23.511Z,3.70
2022-07-29T02:55:59.985Z,3.38
2022-07-29T02:58:41.509Z,3.33
2022-07-29T03:01:24.862Z,3.88
2022-07-29T03:03:56.046Z,3.05
2022-07-29T03:06:37.968Z,4.22
2022-07-29T03:09:13.483Z,3.58
2022-07-29T03:11:50.610Z,3.38
2022-07-29T03:14:21.001Z,3.30
2022-07-29T03:16:50.617Z,3.00
2022-07-29T03:19:20.055Z,3.08
2022-07-29T03:21:47.868Z,3.67
2022-07-29T03:24:37.261Z,3.85
2022-07-29T03:27:06.481Z,3.13
2022-07-29T03:29:34.839Z,3.72
2022-07-29T03:32:08.397Z,3.55
2022-07-29T03:34:38.891Z,4.60
2022-07-29T03:37:07.454Z,4.28
2022-07-29T03:39:42.429Z,3.72
2022-07-29T03:42:16.228Z,3.53
2022-07-29T03:44:49.855Z,3.80
2022-07-29T03:47:23.683Z,4.57
2022-07-29T03:50:16.300Z,4.57
2022-07-29T03:52:43.719Z,3.85
2022-07-29T03:55:15.158Z,3.90
2022-07-29T03:57:46.112Z,3.95
2022-07-29T04:00:16.505Z,4.05
2022-07-29T04:02:50.066Z,4.30
2022-07-29T04:05:19.883Z,4.40
2022-07-29T04:07:49.552Z,4.45
2022-07-29T04:10:30.171Z,4.22
2022-07-29T04:13:00.898Z,4.57
2022-07-29T04:15:31.113Z,3.63
2022-07-29T04:18:00.359Z,4.28
2022-07-29T04:20:28.013Z,4.93
2022-07-29T04:22:55.306Z,4.65
2022-07-29T04:25:22.622Z,4.45
2022-07-29T04:28:01.992Z,4.35
2022-07-29T04:30:31.791Z,4.53
2022-07-29T04:32:59.770Z,3.80
2022-07-29T04:35:28.121Z,3.97
2022-07-29T04:37:55.341Z,4.35
2022-07-29T04:40:22.704Z,4.78
2022-07-29T04:42:49.967Z,4.95
2022-07-29T04:45:22.488Z,4.50
2022-07-29T04:47:51.119Z,4.90
2022-07-29T04:50:18.619Z,5.32
2022-07-29T04:52:45.999Z,4.45
2022-07-29T04:55:13.388Z,5.38
2022-07-29T04:57:40.578Z,4.22
2022-07-29T05:00:10.253Z,5.43
2022-07-29T05:02:37.571Z,5.88
2022-07-29T05:05:05.606Z,4.95
2022-07-29T05:07:32.847Z,4.95
2022-07-29T05:10:00.426Z,5.15
2022-07-29T05:12:28.747Z,5.03
2022-07-29T05:14:56.090Z,5.28
2022-07-29T05:17:23.305Z,4.75
2022-07-29T05:19:52.230Z,5.93
2022-07-29T05:22:21.716Z,6.70
2022-07-29T05:24:49.009Z,5.20
2022-07-29T05:27:16.378Z,4.15
2022-07-29T05:29:45.722Z,5.13
2022-07-29T05:32:16.381Z,5.45
2022-07-29T05:34:50.344Z,5.35
2022-07-29T05:37:21.225Z,4.60
2022-07-29T05:39:56.348Z,5.75
2022-07-29T05:42:26.863Z,5.50
2022-07-29T05:44:54.717Z,4.88
2022-07-29T05:47:22.616Z,5.03
2022-07-29T05:49:50.039Z,5.15
2022-07-29T05:52:17.857Z,5.30
2022-07-29T05:54:45.222Z,5.35
2022-07-29T05:57:22.969Z,5.05
2022-07-29T05:59:52.285Z,4.80
2022-07-29T06:02:19.853Z,4.70
2022-07-29T06:04:47.195Z,4.05
2022-07-29T06:07:14.465Z,4.88
2022-07-29T06:09:41.718Z,5.43
2022-07-29T06:12:09.630Z,5.07
2022-07-29T06:14:37.028Z,4.95
2022-07-29T06:17:04.792Z,5.00
2022-07-29T06:19:32.045Z,6.00
2022-07-29T06:21:59.486Z,5.25
2022-07-29T06:24:26.782Z,5.10
2022-07-29T06:26:53.961Z,5.00
2022-07-29T06:29:21.266Z,4.90
2022-07-29T06:31:48.497Z,4.32
2022-07-29T06:34:16.677Z,5.45
2022-07-29T06:36:45.019Z,5.55
2022-07-29T06:39:13.691Z,5.32
2022-07-29T06:41:41.034Z,5.15
2022-07-29T06:44:11.155Z,5.35
2022-07-29T06:46:38.474Z,5.15
2022-07-29T06:49:07.000Z,5.78
2022-07-29T06:51:34.982Z,4.82
2022-07-29T06:54:03.730Z,5.85
2022-07-29T06:56:40.234Z,5.38
2022-07-29T06:59:10.616Z,5.28
2022-07-29T07:01:44.172Z,5.35
2022-07-29T07:04:13.366Z,5.13
2022-07-29T07:06:40.913Z,5.78
2022-07-29T07:09:08.328Z,5.72
2022-07-29T07:11:35.919Z,6.38
2022-07-29T07:14:04.363Z,5.93
2022-07-29T07:16:33.130Z,6.05
2022-07-29T07:19:01.544Z,6.35
2022-07-29T07:21:30.674Z,5.38
2022-07-29T07:23:59.726Z,6.65
2022-07-29T07:26:28.093Z,6.40
2022-07-29T07:28:55.657Z,5.88
2022-07-29T07:31:23.376Z,6.72
2022-07-29T07:33:50.580Z,7.30
2022-07-29T07:36:17.755Z,5.82
2022-07-29T07:38:45.093Z,6.60
2022-07-29T07:41:12.377Z,5.28
2022-07-29T07:43:39.554Z,6.10
2022-07-29T07:46:06.900Z,6.43
2022-07-29T07:48:35.809Z,4.72
2022-07-29T07:51:03.269Z,6.30
2022-07-29T07:53:31.454Z,6.13
2022-07-29T07:56:15.472Z,5.85
2022-07-29T07:58:42.826Z,6.13
2022-07-29T08:01:10.994Z,6.35
2022-07-29T08:03:39.814Z,5.72
2022-07-29T08:06:07.524Z,6.50
2022-07-29T08:08:34.770Z,6.40
2022-07-29T08:11:08.356Z,5.45
2022-07-29T08:13:38.133Z,6.57
2022-07-29T08:16:16.021Z,5.70
2022-07-29T08:18:46.391Z,6.57
2022-07-29T08:21:16.412Z,7.78
2022-07-29T08:23:57.999Z,6.47
2022-07-29T08:26:27.116Z,6.38
2022-07-29T08:28:54.512Z,7.18
2022-07-29T08:31:21.897Z,5.72
2022-07-29T08:33:49.124Z,6.65
2022-07-29T08:36:17.019Z,6.20
2022-07-29T08:38:44.299Z,5.80
2022-07-29T08:41:11.603Z,5.82
2022-07-29T08:43:41.912Z,5.78
2022-07-29T08:46:09.248Z,6.00
2022-07-29T08:48:37.992Z,6.22
2022-07-29T08:51:08.938Z,5.53
2022-07-29T08:53:39.092Z,5.50
2022-07-29T08:56:07.431Z,5.93
2022-07-29T08:58:36.915Z,6.75
2022-07-29T09:01:07.634Z,5.38
2022-07-29T09:03:41.583Z,6.32
2022-07-29T09:06:09.458Z,5.88
2022-07-29T09:08:36.660Z,4.90
2022-07-29T09:11:05.313Z,4.80
2022-07-29T09:13:33.304Z,5.25
2022-07-29T09:16:03.494Z,4.80
2022-07-29T09:18:44.561Z,4.82
2022-07-29T09:21:37.339Z,5.82
2022-07-29T09:24:13.345Z,4.63
2022-07-29T09:26:46.585Z,5.18
2022-07-29T09:29:24.430Z,5.28
2022-07-29T09:31:55.149Z,5.15
2022-07-29T09:34:32.450Z,5.15
2022-07-29T09:36:59.718Z,6.60
2022-07-29T09:39:38.836Z,5.18
2022-07-29T09:42:07.931Z,4.53
2022-07-29T09:44:51.594Z,4.45
2022-07-29T09:47:22.775Z,4.53
2022-07-29T09:50:01.921Z,5.13
2022-07-29T09:52:31.286Z,4.90
2022-07-29T09:55:17.847Z,3.30
2022-07-29T09:57:47.776Z,4.00
2022-07-29T10:00:20.960Z,4.88
2022-07-29T10:02:49.910Z,4.65
2022-07-29T10:05:36.909Z,3.75
2022-07-29T10:08:04.804Z,4.57
2022-07-29T10:10:36.603Z,4.30
2022-07-29T10:13:16.344Z,5.00
2022-07-29T10:15:47.292Z,5.20
2022-07-29T10:18:18.500Z,4.03
2022-07-29T10:20:46.229Z,3.58
2022-07-29T10:23:13.706Z,4.35
2022-07-29T10:25:46.066Z,3.67
2022-07-29T10:28:16.452Z,5.20
2022-07-29T10:30:46.536Z,5.53
2022-07-29T10:33:52.451Z,4.38
2022-07-29T10:37:19.570Z,4.15
2022-07-29T10:41:19.305Z,3.85
2022-07-29T10:43:51.338Z,4.10
2022-07-29T10:46:20.443Z,4.28
2022-07-29T10:49:17.558Z,4.25
2022-07-29T10:52:11.457Z,4.32
2022-07-29T10:54:48.456Z,4.07
2022-07-29T10:57:53.948Z,4.30
2022-07-29T11:00:31.825Z,4.28
2022-07-29T11:03:00.985Z,4.75
2022-07-29T11:05:59.440Z,4.20
2022-07-29T11:08:28.277Z,4.47
2022-07-29T11:11:22.400Z,4.97
2022-07-29T11:13:57.046Z,4.57
2022-07-29T11:16:24.994Z,5.57
2022-07-29T11:21:59.474Z,3.88
2022-07-29T11:24:33.048Z,4.03
2022-07-29T11:27:21.172Z,3.45
2022-07-29T11:30:04.672Z,3.25
2022-07-29T11:32:48.444Z,3.63
2022-07-29T11:35:38.382Z,4.35
2022-07-29T11:41:31.711Z,3.72
2022-07-29T11:44:02.639Z,3.45
2022-07-29T11:46:53.882Z,4.88
2022-07-29T11:49:32.062Z,3.80
2022-07-29T11:52:04.428Z,3.88
2022-07-29T11:54:38.681Z,3.65
2022-07-29T11:57:36.310Z,3.40
2022-07-29T12:00:12.484Z,3.53
2022-07-29T12:02:48.281Z,3.22
2022-07-29T12:05:24.012Z,4.55
2022-07-29T12:08:22.608Z,4.30
2022-07-29T12:10:52.241Z,3.30
2022-07-29T12:13:22.444Z,4.18
2022-07-29T12:15:59.723Z,3.60
2022-07-29T12:18:28.012Z,3.80
2022-07-29T12:21:04.672Z,4.05
2022-07-29T12:23:34.837Z,4.30
2022-07-29T12:26:07.691Z,4.15
2022-07-29T12:28:39.959Z,3.53
2022-07-29T12:31:44.170Z,4.03
2022-07-29T12:34:04.441Z,3.35
2022-07-29T12:36:31.879Z,4.75
2022-07-29T12:38:59.180Z,4.03
2022-07-29T12:41:29.981Z,3.80
2022-07-29T12:43:57.593Z,3.65
2022-07-29T12:46:24.856Z,3.38
2022-07-29T12:48:59.498Z,3.45
2022-07-29T12:51:41.581Z,3.35
2022-07-29T12:54:12.417Z,3.88
2022-07-29T12:56:44.155Z,3.47
2022-07-29T12:59:23.102Z,3.47
2022-07-29T13:01:53.164Z,3.13
2022-07-29T13:04:34.316Z,3.25
2022-07-29T13:07:08.361Z,3.40
2022-07-29T13:09:45.722Z,3.63
2022-07-29T13:12:15.434Z,3.00
2022-07-29T13:14:47.545Z,3.95
2022-07-29T13:17:17.038Z,3.53
2022-07-29T13:19:51.792Z,3.40
2022-07-29T13:22:23.573Z,3.22
2022-07-29T13:24:53.555Z,3.67
2022-07-29T13:27:33.954Z,3.70
2022-07-29T13:30:06.461Z,4.45
2022-07-29T13:32:37.483Z,3.67
2022-07-29T13:35:09.847Z,3.55
2022-07-29T13:37:39.492Z,3.90
2022-07-29T13:40:10.219Z,3.88
2022-07-29T13:42:38.383Z,4.50
2022-07-29T13:45:07.762Z,3.42
2022-07-29T13:47:35.351Z,3.85
2022-07-29T13:50:06.224Z,3.30
2022-07-29T13:52:35.518Z,3.33
2022-07-29T13:55:04.241Z,3.58
2022-07-29T13:57:31.921Z,3.33
2022-07-29T13:59:59.284Z,3.05
2022-07-29T14:02:26.569Z,3.97
2022-07-29T14:04:55.484Z,2.67
2022-07-29T14:07:23.728Z,2.70
2022-07-29T14:09:51.773Z,3.90
2022-07-29T14:12:19.961Z,3.22
2022-07-29T14:14:47.783Z,3.78
2022-07-29T14:17:16.611Z,4.00
2022-07-29T14:19:44.052Z,3.10
2022-07-29T14:22:11.312Z,3.40
2022-07-29T14:24:40.279Z,3.40
2022-07-29T14:27:09.150Z,3.00
2022-07-29T14:29:38.768Z,3.35
2022-07-29T14:32:15.854Z,4.18
2022-07-29T14:34:43.094Z,3.17
2022-07-29T14:37:15.862Z,2.65
2022-07-29T14:39:43.637Z,3.03
2022-07-29T14:42:13.021Z,3.40
2022-07-29T14:44:42.505Z,3.33
2022-07-29T14:47:10.399Z,3.90
2022-07-29T14:49:37.883Z,3.70
2022-07-29T14:52:06.106Z,3.72
2022-07-29T14:54:33.933Z,3.95
2022-07-29T14:57:01.225Z,3.80
2022-07-29T14:59:28.461Z,3.20
2022-07-29T15:01:55.905Z,3.22
2022-07-29T15:04:23.579Z,3.28
2022-07-29T15:06:51.143Z,3.00
2022-07-29T15:09:18.958Z,2.85
2022-07-29T15:11:46.180Z,2.78
2022-07-29T15:14:13.629Z,3.25
2022-07-29T15:16:43.955Z,3.22
2022-07-29T15:19:14.154Z,3.65
2022-07-29T15:21:48.428Z,3.70
2022-07-29T15:24:20.560Z,3.22
2022-07-29T15:26:48.703Z,2.92
2022-07-29T15:29:16.384Z,2.70
2022-07-29T15:31:44.532Z,4.05
2022-07-29T15:34:11.843Z,3.13
2022-07-29T15:36:54.752Z,2.55
2022-07-29T15:39:23.530Z,3.45
2022-07-29T15:41:52.132Z,2.92
2022-07-29T15:44:21.183Z,2.90
2022-07-29T15:47:06.124Z,3.40
2022-07-29T15:49:47.607Z,3.20
2022-07-29T15:52:25.807Z,3.10
2022-07-29T15:54:57.835Z,3.42
2022-07-29T15:57:25.995Z,2.65
2022-07-29T15:59:53.702Z,3.13
2022-07-29T16:02:21.192Z,3.05
2022-07-29T16:04:48.727Z,3.28
2022-07-29T16:07:16.508Z,3.33
2022-07-29T16:09:49.370Z,3.38
2022-07-29T16:12:18.383Z,2.90
2022-07-29T16:14:46.046Z,3.47
2022-07-29T16:17:14.763Z,2.60
2022-07-29T16:19:44.543Z,3.17
2022-07-29T16:22:13.218Z,3.38
2022-07-29T16:24:40.693Z,3.97
2022-07-29T16:27:08.651Z,2.88
2022-07-29T16:29:37.134Z,3.38
2022-07-29T16:32:06.557Z,3.08
2022-07-29T16:34:34.281Z,3.80
2022-07-29T16:37:01.750Z,3.03
2022-07-29T16:39:29.554Z,3.45
2022-07-29T16:42:00.025Z,3.10
2022-07-29T16:44:28.551Z,3.22
2022-07-29T16:46:58.055Z,3.20
2022-07-29T16:49:28.041Z,2.90
2022-07-29T16:51:55.549Z,3.70
2022-07-29T16:54:23.019Z,2.85
2022-07-29T16:56:50.268Z,3.00
2022-07-29T16:59:17.594Z,3.08
2022-07-29T17:01:44.886Z,3.58
2022-07-29T17:04:14.822Z,2.75
2022-07-29T17:06:42.895Z,3.20
2022-07-29T17:09:15.013Z,3.20
2022-07-29T17:11:54.049Z,2.92
2022-07-29T17:14:29.363Z,3.25
2022-07-29T17:17:02.206Z,3.45
2022-07-29T17:19:36.251Z,2.38
2022-07-29T17:22:14.305Z,2.60
2022-07-29T17:24:46.782Z,3.22
2022-07-29T17:27:15.065Z,3.67
2022-07-29T17:29:42.867Z,2.70
2022-07-29T17:32:10.867Z,3.25
2022-07-29T17:34:41.012Z,4.07
2022-07-29T17:37:12.219Z,3.40
2022-07-29T17:39:41.662Z,2.72
2022-07-29T17:42:13.174Z,3.45
2022-07-29T17:44:40.924Z,2.50
2022-07-29T17:47:15.985Z,2.92
2022-07-29T17:49:45.724Z,2.90
2022-07-29T17:52:13.240Z,3.13
2022-07-29T17:54:40.439Z,3.17
2022-07-29T17:57:08.145Z,3.15
2022-07-29T17:59:35.308Z,3.35
2022-07-29T18:02:02.653Z,3.22
2022-07-29T18:04:31.371Z,3.80
2022-07-29T18:06:58.850Z,3.55
2022-07-29T18:09:26.328Z,3.15
2022-07-29T18:11:53.620Z,3.50
2022-07-29T18:14:20.782Z,4.53
2022-07-29T18:16:48.080Z,3.60
2022-07-29T18:19:16.087Z,3.35
2022-07-29T18:21:53.459Z,3.70
2022-07-29T18:24:27.424Z,3.85
2022-07-29T18:26:54.942Z,3.33
2022-07-29T18:29:22.328Z,3.42
2022-07-29T18:31:50.097Z,3.35
2022-07-29T18:34:17.550Z,3.10
2022-07-29T18:36:46.094Z,3.28
2022-07-29T18:39:20.338Z,4.07
2022-07-29T18:41:51.640Z,3.60
2022-07-29T18:44:22.854Z,4.72
2022-07-29T18:46:52.437Z,3.92
2022-07-29T18:49:19.949Z,4.53
2022-07-29T18:51:48.901Z,4.97
2022-07-29T18:54:17.567Z,4.40
2022-07-29T18:56:46.938Z,4.53
2022-07-29T18:59:19.661Z,4.43
2022-07-29T19:01:48.861Z,5.03
2022-07-29T19:04:17.869Z,5.13
2022-07-29T19:06:45.592Z,4.57
2022-07-29T19:09:13.229Z,4.53
2022-07-29T19:11:40.644Z,4.85
2022-07-29T19:14:08.079Z,4.15
2022-07-29T19:16:35.872Z,3.88
2022-07-29T19:19:04.333Z,4.03
2022-07-29T19:21:31.657Z,3.97
2022-07-29T19:24:04.175Z,4.10
2022-07-29T19:26:43.980Z,3.30
2022-07-29T19:29:11.354Z,3.22
2022-07-29T19:31:40.956Z,2.97
2022-07-29T19:34:08.866Z,3.30
2022-07-29T19:36:36.539Z,3.83
2022-07-29T19:39:04.225Z,3.55
2022-07-29T19:41:31.675Z,3.67
2022-07-29T19:43:58.882Z,3.42
2022-07-29T19:46:28.961Z,3.63
2022-07-29T19:48:57.046Z,3.45
2022-07-29T19:51:24.593Z,3.65
2022-07-29T19:53:52.351Z,3.92
2022-07-29T19:56:19.639Z,3.10
2022-07-29T19:58:46.889Z,3.60
2022-07-29T20:01:15.227Z,3.55
2022-07-29T20:03:44.689Z,3.47
2022-07-29T20:06:12.649Z,3.63
2022-07-29T20:08:40.057Z,3.28
2022-07-29T20:11:07.501Z,2.97
2022-07-29T20:13:35.295Z,3.15
2022-07-29T20:16:05.592Z,3.40
2022-07-29T20:18:32.981Z,3.55
2022-07-29T20:21:01.378Z,2.97
2022-07-29T20:23:28.602Z,3.22
2022-07-29T20:26:01.323Z,2.83
2022-07-29T20:28:28.510Z,4.05
2022-07-29T20:30:55.778Z,3.42
2022-07-29T20:33:23.024Z,3.20
2022-07-29T20:35:50.297Z,2.85
2022-07-29T20:38:18.447Z,3.67
2022-07-29T20:40:46.234Z,3.50
2022-07-29T20:43:13.523Z,3.88
2022-07-29T20:45:40.793Z,3.17
2022-07-29T20:48:08.592Z,4.03
2022-07-29T20:50:36.109Z,4.10
2022-07-29T20:53:03.585Z,3.47
2022-07-29T20:55:32.003Z,4.57
2022-07-29T20:57:59.396Z,4.20
2022-07-29T21:00:28.471Z,4.50
2022-07-29T21:02:55.722Z,5.60
2022-07-29T21:05:23.296Z,4.68
2022-07-29T21:07:51.281Z,4.82
2022-07-29T21:10:20.861Z,4.85
2022-07-29T21:12:48.614Z,5.15
2022-07-29T21:15:16.336Z,4.82
2022-07-29T21:17:47.129Z,5.00
2022-07-29T21:20:19.582Z,5.78
2022-07-29T21:22:46.944Z,5.30
2022-07-29T21:25:14.160Z,5.13
2022-07-29T21:28:00.185Z,5.15
2022-07-29T21:30:27.453Z,4.65
2022-07-29T21:32:54.699Z,4.43
2022-07-29T21:36:01.570Z,5.72
2022-07-29T21:40:36.405Z,4.63
2022-07-29T21:43:04.441Z,4.90
2022-07-29T21:45:31.665Z,5.63
2022-07-29T21:47:59.038Z,4.65
2022-07-29T21:50:26.602Z,5.00
2022-07-29T21:52:53.952Z,5.85
2022-07-29T21:55:22.857Z,5.22
2022-07-29T21:57:56.406Z,6.32
2022-07-29T22:00:25.658Z,6.15
2022-07-29T22:02:53.634Z,5.55
2022-07-29T22:05:21.662Z,6.20
2022-07-29T22:07:55.676Z,5.90
2022-07-29T22:10:26.989Z,6.05
2022-07-29T22:12:58.728Z,6.50
2022-07-29T22:15:27.585Z,6.10
2022-07-29T22:17:54.905Z,6.32
2022-07-29T22:20:22.541Z,6.72
2022-07-29T22:22:50.378Z,8.07
2022-07-29T22:25:17.858Z,6.95
2022-07-29T22:27:45.162Z,6.45
2022-07-29T22:30:13.781Z,6.57
2022-07-29T22:32:41.520Z,7.20
2022-07-29T22:35:10.358Z,7.22
2022-07-29T22:37:37.761Z,7.72
2022-07-29T22:40:06.447Z,8.63
2022-07-29T22:42:35.514Z,7.82
2022-07-29T22:45:03.463Z,8.40
2022-07-29T22:47:46.610Z,7.78
2022-07-29T22:50:17.129Z,8.07
2022-07-29T22:52:46.204Z,7.97
2022-07-29T22:55:14.446Z,7.50
2022-07-29T22:57:42.421Z,7.93
2022-07-29T23:00:10.866Z,8.13
2022-07-29T23:02:38.230Z,9.27
2022-07-29T23:05:06.734Z,7.75
2022-07-29T23:07:33.947Z,8.07
2022-07-29T23:10:02.186Z,8.23
2022-07-29T23:12:29.344Z,9.00
2022-07-29T23:14:56.517Z,9.07
2022-07-29T23:17:23.774Z,7.70
2022-07-29T23:19:51.107Z,9.30
2022-07-29T23:22:18.628Z,9.27
2022-07-29T23:24:45.969Z,9.63
2022-07-29T23:27:13.178Z,10.95
2022-07-29T23:29:40.376Z,10.27
2022-07-29T23:32:07.783Z,10.60
2022-07-29T23:34:34.933Z,10.95
2022-07-29T23:37:02.349Z,10.95
2022-07-29T23:39:29.975Z,9.65
2022-07-29T23:41:57.158Z,9.52
2022-07-29T23:44:24.580Z,9.50
2022-07-29T23:46:51.799Z,10.52
2022-07-29T23:49:19.125Z,11.02
2022-07-29T23:51:46.478Z,9.70
2022-07-29T23:54:13.709Z,10.02
2022-07-29T23:56:40.914Z,10.32
2022-07-29T23:59:08.096Z,10.27
